Time;durP1;ratioP1;P1;durP2;ratioP2;P2;SDS_P1;SDS_P2;PMS_P1;PMS_P2;Temp;Humidity;BMP_temperature;BMP_pressure;BME280_temperature;BME280_humidity;BME280_pressure;Samples;Min_cycle;Max_cycle;Signal;HPM_P1;HPM_P2
2023/05/04 00:00:22;;;;;;;6.60;3.20;;;11.10;99.90;;;;;;5092574;28;20215;-56
2023/05/04 00:02:49;;;;;;;4.97;3.50;;;11.10;99.90;;;;;;5092335;28;20660;-57
2023/05/04 00:05:17;;;;;;;5.73;3.13;;;11.00;99.90;;;;;;5092064;28;20695;-56
2023/05/04 00:07:43;;;;;;;3.43;2.87;;;10.90;99.90;;;;;;5092561;28;20204;-56
2023/05/04 00:10:11;;;;;;;6.63;3.47;;;10.90;99.90;;;;;;5092534;28;20286;-56
2023/05/04 00:12:37;;;;;;;4.60;3.10;;;10.80;99.90;;;;;;5091455;28;20204;-56
2023/05/04 00:15:05;;;;;;;3.80;3.40;;;10.80;99.90;;;;;;5092147;28;20204;-56
2023/05/04 00:17:32;;;;;;;4.83;3.00;;;10.80;99.90;;;;;;5092332;28;20208;-56
2023/05/04 00:19:59;;;;;;;4.47;3.43;;;10.70;99.90;;;;;;5092237;28;20215;-56
2023/05/04 00:22:27;;;;;;;3.73;3.33;;;10.70;99.90;;;;;;5092685;28;20204;-57
2023/05/04 00:24:53;;;;;;;5.00;3.23;;;10.60;99.90;;;;;;5092233;28;20321;-57
2023/05/04 00:27:20;;;;;;;5.20;3.17;;;10.60;99.90;;;;;;5092380;28;20211;-56
2023/05/04 00:29:47;;;;;;;4.50;3.73;;;10.60;99.90;;;;;;5092761;28;20594;-56
2023/05/04 00:32:13;;;;;;;3.97;3.37;;;10.60;99.90;;;;;;5092163;28;20616;-55
2023/05/04 00:34:40;;;;;;;4.07;3.40;;;10.70;99.90;;;;;;5091885;28;20224;-56
2023/05/04 00:37:07;;;;;;;4.07;3.23;;;10.70;99.90;;;;;;5092281;28;20211;-56
2023/05/04 00:39:35;;;;;;;4.23;3.20;;;10.60;99.90;;;;;;5092674;28;20204;-56
2023/05/04 00:42:01;;;;;;;6.77;3.20;;;10.60;99.90;;;;;;5092037;28;20212;-55
2023/05/04 00:44:28;;;;;;;6.90;3.70;;;10.60;99.90;;;;;;5092141;28;20279;-56
2023/05/04 00:46:56;;;;;;;4.63;3.63;;;10.60;99.90;;;;;;5092124;28;20235;-56
2023/05/04 00:49:23;;;;;;;4.80;3.43;;;10.50;99.90;;;;;;5092634;28;20215;-56
2023/05/04 00:51:51;;;;;;;5.03;3.60;;;10.50;99.90;;;;;;5092213;28;20204;-56
2023/05/04 00:54:18;;;;;;;6.60;3.67;;;10.50;99.90;;;;;;5092050;28;20227;-55
2023/05/04 00:56:46;;;;;;;4.77;3.80;;;10.40;99.90;;;;;;5092586;28;20200;-56
2023/05/04 00:59:13;;;;;;;5.33;4.00;;;10.40;99.90;;;;;;5092597;28;20663;-56
2023/05/04 01:01:40;;;;;;;4.77;3.97;;;10.40;99.90;;;;;;5092461;28;20741;-57
2023/05/04 01:04:07;;;;;;;8.00;4.03;;;10.30;99.90;;;;;;5092028;28;20224;-57
2023/05/04 01:06:42;;;;;;;5.47;3.70;;;10.30;99.90;;;;;;5092016;28;20695;-57
2023/05/04 01:09:17;;;;;;;6.47;3.73;;;10.30;99.90;;;;;;5092419;28;20223;-57
2023/05/04 01:11:53;;;;;;;5.60;3.70;;;10.30;99.90;;;;;;5092376;28;20208;-58
2023/05/04 01:14:21;;;;;;;6.17;3.83;;;10.30;99.90;;;;;;5091803;28;20238;-57
2023/05/04 01:16:50;;;;;;;5.47;4.07;;;10.20;99.90;;;;;;5092086;28;20204;-57
2023/05/04 01:19:16;;;;;;;5.90;4.27;;;10.20;99.90;;;;;;5092025;28;20212;-59
2023/05/04 01:21:45;;;;;;;5.40;4.13;;;10.20;99.90;;;;;;5092165;28;20208;-58
2023/05/04 01:24:12;;;;;;;4.30;3.80;;;10.20;99.90;;;;;;5095082;28;20220;-57
2023/05/04 01:26:42;;;;;;;5.27;4.00;;;10.10;99.90;;;;;;5095342;28;20256;-56
2023/05/04 01:29:15;;;;;;;6.67;3.33;;;10.10;99.90;;;;;;5096103;28;20204;-57
2023/05/04 01:31:44;;;;;;;5.90;3.90;;;10.10;99.90;;;;;;5095958;28;20204;-56
2023/05/04 01:34:11;;;;;;;4.63;3.90;;;10.00;99.90;;;;;;5095208;28;20232;-57
2023/05/04 01:36:39;;;;;;;6.10;4.40;;;10.00;99.90;;;;;;5095546;28;20200;-56
2023/05/04 01:39:08;;;;;;;5.50;4.27;;;9.90;99.90;;;;;;5095172;28;20219;-56
2023/05/04 01:41:35;;;;;;;6.87;4.57;;;9.90;99.90;;;;;;5095249;28;20204;-56
2023/05/04 01:44:02;;;;;;;4.70;4.00;;;9.90;99.90;;;;;;5096134;28;20738;-57
2023/05/04 01:46:29;;;;;;;5.23;4.40;;;9.90;99.90;;;;;;5096202;28;20228;-57
2023/05/04 01:48:55;;;;;;;5.00;4.27;;;9.90;99.90;;;;;;5096505;28;20208;-56
2023/05/04 01:51:22;;;;;;;7.27;4.63;;;9.90;99.90;;;;;;5096562;28;20215;-58
2023/05/04 01:53:49;;;;;;;5.53;4.03;;;10.00;99.90;;;;;;5095790;28;20278;-59
2023/05/04 01:56:17;;;;;;;5.47;4.13;;;10.00;99.90;;;;;;5095843;28;20231;-58
2023/05/04 01:58:43;;;;;;;4.30;3.90;;;9.90;99.90;;;;;;5095522;28;20265;-58
2023/05/04 02:01:10;;;;;;;5.87;4.13;;;9.70;99.90;;;;;;5096378;28;20207;-58
2023/05/04 02:03:37;;;;;;;5.93;4.50;;;9.60;99.90;;;;;;5095384;28;20734;-58
2023/05/04 02:06:04;;;;;;;4.87;4.27;;;9.50;99.90;;;;;;5095380;28;20714;-57
2023/05/04 02:08:30;;;;;;;7.30;4.77;;;9.50;99.90;;;;;;5095701;28;20200;-57
2023/05/04 02:10:57;;;;;;;5.27;4.43;;;9.50;99.90;;;;;;5095959;28;20215;-59
2023/05/04 02:13:25;;;;;;;5.87;4.17;;;9.50;99.90;;;;;;5095463;28;20744;-58
2023/05/04 02:15:52;;;;;;;6.03;4.73;;;9.50;99.90;;;;;;5095380;28;20591;-59
2023/05/04 02:18:18;;;;;;;6.67;5.10;;;9.50;99.90;;;;;;5095812;28;20211;-58
2023/05/04 02:20:45;;;;;;;7.53;5.17;;;9.60;99.90;;;;;;5095886;28;20212;-63
2023/05/04 02:23:12;;;;;;;6.73;4.80;;;9.60;99.90;;;;;;5095131;28;20231;-59
2023/05/04 02:25:40;;;;;;;5.73;4.70;;;9.70;99.90;;;;;;5095097;28;20235;-58
2023/05/04 02:28:07;;;;;;;7.57;5.23;;;9.70;99.90;;;;;;5095057;28;20695;-58
2023/05/04 02:30:35;;;;;;;7.13;4.93;;;9.70;99.90;;;;;;5094815;28;20208;-58
2023/05/04 02:33:02;;;;;;;6.37;5.13;;;9.70;99.90;;;;;;5094441;28;20273;-58
2023/05/04 02:35:29;;;;;;;6.87;5.20;;;9.70;99.90;;;;;;5094007;28;20208;-58
2023/05/04 02:37:55;;;;;;;4.90;4.27;;;9.70;99.90;;;;;;5094404;28;20706;-58
2023/05/04 02:40:22;;;;;;;4.50;3.90;;;9.80;99.90;;;;;;5094867;28;20211;-59
2023/05/04 02:42:49;;;;;;;5.73;5.13;;;9.80;99.90;;;;;;5094591;28;20296;-58
2023/05/04 02:45:16;;;;;;;6.87;4.97;;;9.80;99.90;;;;;;5095201;28;20671;-58
2023/05/04 02:47:44;;;;;;;6.90;4.83;;;9.70;99.90;;;;;;5095490;28;20231;-58
2023/05/04 02:50:11;;;;;;;8.57;5.00;;;9.60;99.90;;;;;;5095876;28;20609;-57
2023/05/04 02:52:38;;;;;;;7.27;4.97;;;9.50;99.90;;;;;;5095815;28;20208;-58
2023/05/04 02:55:05;;;;;;;5.87;5.07;;;9.50;99.90;;;;;;5094544;28;20223;-59
2023/05/04 02:57:32;;;;;;;7.13;5.10;;;9.40;99.90;;;;;;5093892;28;20204;-58
2023/05/04 02:59:59;;;;;;;5.50;5.00;;;9.20;99.90;;;;;;5094257;28;20584;-58
2023/05/04 03:02:25;;;;;;;5.63;5.00;;;9.10;99.90;;;;;;5093783;28;20208;-57
2023/05/04 03:04:53;;;;;;;6.70;5.10;;;9.10;99.90;;;;;;5093364;28;20689;-59
2023/05/04 03:07:20;;;;;;;9.70;5.70;;;9.10;99.90;;;;;;5093493;28;20239;-58
2023/05/04 03:09:47;;;;;;;9.37;5.43;;;9.10;99.90;;;;;;5093533;28;20208;-58
2023/05/04 03:12:13;;;;;;;8.13;5.63;;;9.10;99.90;;;;;;5093650;28;20207;-58
2023/05/04 03:14:40;;;;;;;6.17;5.50;;;9.00;99.90;;;;;;5093094;28;20228;-59
2023/05/04 03:17:07;;;;;;;6.37;5.03;;;9.00;99.90;;;;;;5093331;28;20232;-58
2023/05/04 03:19:34;;;;;;;7.40;5.50;;;8.90;99.90;;;;;;5093414;28;20208;-58
2023/05/04 03:22:02;;;;;;;6.43;5.20;;;8.90;99.90;;;;;;5093283;28;20204;-58
2023/05/04 03:24:28;;;;;;;6.33;5.43;;;8.80;99.90;;;;;;5092966;28;20251;-58
2023/05/04 03:26:55;;;;;;;5.57;5.00;;;8.80;99.90;;;;;;5092953;28;20231;-58
2023/05/04 03:29:22;;;;;;;7.20;5.43;;;8.70;99.90;;;;;;5093111;28;20208;-58
2023/05/04 03:31:48;;;;;;;6.87;5.53;;;8.70;99.90;;;;;;5092927;28;20566;-58
2023/05/04 03:34:20;;;;;;;6.43;4.97;;;8.70;99.90;;;;;;5092860;28;20286;-58
2023/05/04 03:36:47;;;;;;;6.73;5.57;;;8.60;99.90;;;;;;5093486;28;20208;-58
2023/05/04 03:39:15;;;;;;;8.80;5.80;;;8.60;99.90;;;;;;5093728;28;20205;-59
2023/05/04 03:41:42;;;;;;;8.53;5.27;;;8.60;99.90;;;;;;5093727;28;20208;-58
2023/05/04 03:44:08;;;;;;;6.93;6.10;;;8.50;99.90;;;;;;5093095;28;20236;-58
2023/05/04 03:46:35;;;;;;;7.63;5.70;;;8.50;99.90;;;;;;5093888;28;20239;-59
2023/05/04 03:49:02;;;;;;;8.17;5.90;;;8.50;99.90;;;;;;5093851;28;20216;-58
2023/05/04 03:51:29;;;;;;;7.43;5.50;;;8.50;99.90;;;;;;5093606;28;20204;-58
2023/05/04 03:53:56;;;;;;;7.50;6.13;;;8.50;99.90;;;;;;5093313;28;20243;-58
2023/05/04 03:56:24;;;;;;;9.40;6.90;;;8.50;99.90;;;;;;5093553;28;20211;-57
2023/05/04 03:58:51;;;;;;;9.13;5.97;;;8.60;99.90;;;;;;5094007;28;20234;-58
2023/05/04 04:01:18;;;;;;;6.20;5.40;;;8.50;99.90;;;;;;5094131;28;20587;-58
2023/05/04 04:03:44;;;;;;;8.37;5.93;;;8.60;99.90;;;;;;5093851;28;20228;-58
2023/05/04 04:06:12;;;;;;;8.77;6.60;;;8.50;99.90;;;;;;5094166;28;20223;-58
2023/05/04 04:08:38;;;;;;;9.83;7.37;;;8.60;99.90;;;;;;5094231;28;20243;-59
2023/05/04 04:11:05;;;;;;;8.20;6.30;;;8.60;99.90;;;;;;5094036;28;20208;-56
2023/05/04 04:13:34;;;;;;;7.73;6.93;;;8.60;99.90;;;;;;5093894;28;20285;-56
2023/05/04 04:16:00;;;;;;;9.07;6.13;;;8.70;99.90;;;;;;5093589;28;20235;-57
2023/05/04 04:18:27;;;;;;;8.97;5.90;;;8.70;99.90;;;;;;5093860;28;20598;-57
2023/05/04 04:20:54;;;;;;;7.13;6.10;;;8.70;99.90;;;;;;5093592;28;20215;-58
2023/05/04 04:23:21;;;;;;;8.00;6.27;;;8.70;99.90;;;;;;5093223;28;20641;-57
2023/05/04 04:25:47;;;;;;;6.40;5.43;;;8.80;99.90;;;;;;5093056;28;20211;-58
2023/05/04 04:28:15;;;;;;;7.60;6.33;;;8.80;99.90;;;;;;5093806;28;20231;-58
2023/05/04 04:30:43;;;;;;;7.27;5.97;;;8.90;99.90;;;;;;5093267;28;20258;-56
2023/05/04 04:33:09;;;;;;;7.90;5.97;;;8.90;99.90;;;;;;5093500;28;20224;-57
2023/05/04 04:35:36;;;;;;;7.07;5.07;;;9.00;99.90;;;;;;5093576;28;20212;-57
2023/05/04 04:38:03;;;;;;;5.83;5.27;;;8.90;99.90;;;;;;5093682;28;20231;-58
2023/05/04 04:40:30;;;;;;;9.30;5.77;;;9.00;99.90;;;;;;5093437;28;20204;-58
2023/05/04 04:42:57;;;;;;;7.50;5.57;;;9.00;99.90;;;;;;5093621;28;20204;-58
2023/05/04 04:45:24;;;;;;;8.47;5.57;;;9.00;99.90;;;;;;5092784;28;20207;-58
2023/05/04 04:47:52;;;;;;;6.73;5.50;;;9.00;99.90;;;;;;5092668;28;20608;-58
2023/05/04 04:50:19;;;;;;;7.30;5.77;;;9.10;99.90;;;;;;5093268;28;20208;-57
2023/05/04 04:52:46;;;;;;;7.93;6.30;;;9.10;99.90;;;;;;5092911;28;20204;-58
2023/05/04 04:55:14;;;;;;;7.50;5.67;;;9.10;99.90;;;;;;5092833;28;20208;-57
2023/05/04 04:57:41;;;;;;;9.60;5.90;;;9.20;99.90;;;;;;5094157;28;20200;-57
2023/05/04 05:00:09;;;;;;;8.43;6.10;;;9.40;99.90;;;;;;5097012;28;20276;-58
2023/05/04 05:02:36;;;;;;;7.77;5.63;;;9.50;99.90;;;;;;5096545;28;20247;-58
2023/05/04 05:05:05;;;;;;;8.17;5.57;;;9.60;99.90;;;;;;5096553;28;20801;-58
2023/05/04 05:07:32;;;;;;;9.50;5.97;;;9.70;99.90;;;;;;5096736;28;20293;-58
2023/05/04 05:09:58;;;;;;;8.00;5.70;;;9.80;99.90;;;;;;5096433;28;20721;-58
2023/05/04 05:12:25;;;;;;;7.40;5.97;;;9.90;99.90;;;;;;5096255;28;20207;-57
2023/05/04 05:14:52;;;;;;;11.67;5.73;;;10.00;99.90;;;;;;5095795;28;20232;-58
2023/05/04 05:17:19;;;;;;;9.90;6.10;;;10.20;99.90;;;;;;5096698;28;20207;-57
2023/05/04 05:19:46;;;;;;;8.10;5.60;;;10.10;99.90;;;;;;5096382;28;20739;-57
2023/05/04 05:22:15;;;;;;;9.97;6.30;;;10.10;99.90;;;;;;5096364;28;20208;-57
2023/05/04 05:24:42;;;;;;;8.93;5.47;;;10.10;99.90;;;;;;5096693;28;20230;-57
2023/05/04 05:27:08;;;;;;;9.87;5.50;;;10.10;99.90;;;;;;5096473;28;20703;-57
2023/05/04 05:29:35;;;;;;;8.13;6.17;;;10.30;99.90;;;;;;5096309;28;20208;-58
2023/05/04 05:32:03;;;;;;;7.73;5.33;;;10.50;99.90;;;;;;5096194;28;20209;-58
2023/05/04 05:34:30;;;;;;;8.30;6.23;;;11.20;99.90;;;;;;5096343;28;20256;-58
2023/05/04 05:36:57;;;;;;;10.83;5.87;;;12.50;99.90;;;;;;5096401;28;20204;-57
2023/05/04 05:39:25;;;;;;;9.20;5.70;;;14.10;99.90;;;;;;5096758;28;20310;-57
2023/05/04 05:41:57;;;;;;;8.07;5.03;;;15.50;99.90;;;;;;5097225;28;20199;-58
2023/05/04 05:44:24;;;;;;;7.07;5.03;;;16.60;99.90;;;;;;5097469;28;20255;-58
2023/05/04 05:46:50;;;;;;;6.75;4.85;;;17.70;99.90;;;;;;5096928;28;20258;-58
2023/05/04 05:49:17;;;;;;;5.43;4.60;;;18.50;99.90;;;;;;5096679;28;20688;-58
2023/05/04 05:51:44;;;;;;;8.35;4.75;;;19.30;99.90;;;;;;5096385;28;20204;-58
2023/05/04 05:54:10;;;;;;;9.43;5.45;;;20.00;99.90;;;;;;5095922;28;20224;-59
2023/05/04 05:56:38;;;;;;;5.80;4.68;;;20.60;99.00;;;;;;5095845;28;20219;-59
2023/05/04 05:59:05;;;;;;;6.25;5.05;;;20.80;97.90;;;;;;5096475;28;20204;-58
2023/05/04 06:01:32;;;;;;;7.32;4.78;;;21.00;97.10;;;;;;5096521;28;20579;-58
2023/05/04 06:03:58;;;;;;;7.35;5.07;;;21.30;96.30;;;;;;5094819;28;20232;-59
2023/05/04 06:06:25;;;;;;;5.68;4.55;;;21.50;95.20;;;;;;5094536;28;20652;-59
2023/05/04 06:08:52;;;;;;;6.72;5.00;;;21.50;94.90;;;;;;5094114;28;20212;-59
2023/05/04 06:11:18;;;;;;;7.22;5.38;;;21.60;94.60;;;;;;5094276;28;20254;-59
2023/05/04 06:13:46;;;;;;;7.03;4.78;;;22.00;94.00;;;;;;5094553;28;20228;-59
2023/05/04 06:16:14;;;;;;;6.35;4.65;;;22.50;93.00;;;;;;5094558;28;20207;-59
2023/05/04 06:18:40;;;;;;;7.65;5.05;;;23.10;91.80;;;;;;5094852;28;20234;-58
2023/05/04 06:21:07;;;;;;;7.88;4.60;;;23.60;90.90;;;;;;5094613;28;20212;-58
2023/05/04 06:23:34;;;;;;;6.68;4.47;;;24.30;89.40;;;;;;5094726;28;20227;-59
2023/05/04 06:26:01;;;;;;;7.15;4.78;;;24.70;87.50;;;;;;5095132;28;20204;-59
2023/05/04 06:28:28;;;;;;;5.88;4.60;;;25.30;84.90;;;;;;5094965;28;20224;-58
2023/05/04 06:30:56;;;;;;;5.90;5.00;;;25.60;83.60;;;;;;5095741;28;20212;-59
2023/05/04 06:33:22;;;;;;;6.40;4.88;;;26.00;81.10;;;;;;5095468;28;20258;-58
2023/05/04 06:35:50;;;;;;;6.97;4.90;;;26.20;79.50;;;;;;5095137;28;20211;-58
2023/05/04 06:38:17;;;;;;;5.55;4.30;;;26.10;78.80;;;;;;5094993;28;20212;-59
2023/05/04 06:40:44;;;;;;;4.93;4.53;;;26.20;77.80;;;;;;5094997;28;20216;-58
2023/05/04 06:43:11;;;;;;;5.60;4.63;;;25.90;77.60;;;;;;5095172;28;20711;-60
2023/05/04 06:45:38;;;;;;;5.72;4.78;;;25.80;77.60;;;;;;5095156;28;20212;-59
2023/05/04 06:48:06;;;;;;;6.97;4.88;;;26.10;77.30;;;;;;5094344;28;20731;-60
2023/05/04 06:50:34;;;;;;;4.97;4.47;;;26.40;75.30;;;;;;5095375;28;20274;-60
2023/05/04 06:53:06;;;;;;;5.55;4.68;;;26.70;74.60;;;;;;5095071;28;20252;-60
2023/05/04 06:55:33;;;;;;;6.32;4.80;;;27.00;74.10;;;;;;5095102;28;20199;-60
2023/05/04 06:58:00;;;;;;;5.55;4.97;;;27.20;72.90;;;;;;5094873;28;20203;-60
2023/05/04 07:00:27;;;;;;;6.35;5.20;;;27.30;72.70;;;;;;5094979;28;20208;-59
2023/05/04 07:02:53;;;;;;;7.75;5.15;;;27.60;71.80;;;;;;5094912;28;20633;-60
2023/05/04 07:05:22;;;;;;;6.78;5.55;;;28.00;70.30;;;;;;5094565;28;20616;-59
2023/05/04 07:07:49;;;;;;;5.55;4.93;;;28.10;70.90;;;;;;5094768;28;20308;-59
2023/05/04 07:10:16;;;;;;;7.35;4.85;;;28.00;69.00;;;;;;5094778;28;20204;-60
2023/05/04 07:12:43;;;;;;;5.38;4.72;;;27.50;69.90;;;;;;5094644;28;20208;-60
2023/05/04 07:15:10;;;;;;;6.10;5.50;;;27.70;69.30;;;;;;5094402;28;20254;-60
2023/05/04 07:17:37;;;;;;;5.38;4.50;;;27.80;68.50;;;;;;5095007;28;20215;-60
2023/05/04 07:20:05;;;;;;;5.78;4.82;;;27.80;68.30;;;;;;5095215;28;20212;-60
2023/05/04 07:22:34;;;;;;;5.25;4.70;;;27.30;68.90;;;;;;5095381;28;20208;-59
2023/05/04 07:25:01;;;;;;;6.65;4.22;;;26.80;70.00;;;;;;5095236;28;20228;-59
2023/05/04 07:27:28;;;;;;;7.50;5.07;;;26.50;70.90;;;;;;5094527;28;20591;-59
2023/05/04 07:29:55;;;;;;;4.80;4.25;;;26.90;70.10;;;;;;5094134;28;20215;-59
2023/05/04 07:32:22;;;;;;;6.10;4.40;;;27.30;69.40;;;;;;5094338;28;20212;-59
2023/05/04 07:34:49;;;;;;;5.30;4.55;;;27.60;68.50;;;;;;5094156;28;20228;-60
2023/05/04 07:37:16;;;;;;;5.30;4.35;;;28.00;66.80;;;;;;5093830;28;20200;-63
2023/05/04 07:39:44;;;;;;;6.25;4.00;;;28.30;66.00;;;;;;5071529;28;20224;-59
2023/05/04 07:42:11;;;;;;;4.40;4.00;;;28.50;65.20;;;;;;5071537;28;20233;-64
2023/05/04 07:44:38;;;;;;;5.00;4.22;;;29.10;63.80;;;;;;5072332;28;20323;-65
2023/05/04 07:47:05;;;;;;;5.72;4.18;;;29.10;63.00;;;;;;5072788;28;20292;-68
2023/05/04 07:49:32;;;;;;;4.93;3.88;;;29.70;62.20;;;;;;5070786;28;20215;-64
2023/05/04 07:51:58;;;;;;;4.13;3.72;;;29.70;61.00;;;;;;5072347;28;20699;-63
2023/05/04 07:54:25;;;;;;;4.45;3.40;;;29.00;62.60;;;;;;5073196;28;20239;-63
2023/05/04 07:56:53;;;;;;;5.55;3.70;;;28.80;62.20;;;;;;5073007;28;20213;-63
2023/05/04 07:59:20;;;;;;;5.10;3.78;;;27.90;63.20;;;;;;5072970;28;20213;-63
2023/05/04 08:01:47;;;;;;;4.78;3.75;;;27.70;63.60;;;;;;5072301;28;20205;-64
2023/05/04 08:04:14;;;;;;;6.00;4.82;;;27.90;63.20;;;;;;5072310;28;20225;-62
2023/05/04 08:06:40;;;;;;;3.80;3.50;;;28.20;62.60;;;;;;5072484;28;20643;-63
2023/05/04 08:09:07;;;;;;;4.60;3.75;;;28.90;61.20;;;;;;5072207;28;20220;-62
2023/05/04 08:11:34;;;;;;;4.00;3.60;;;29.20;59.60;;;;;;5072938;28;20212;-64
2023/05/04 08:14:02;;;;;;;4.82;3.40;;;28.90;60.60;;;;;;5072747;28;20221;-65
2023/05/04 08:16:29;;;;;;;5.05;3.80;;;28.90;59.60;;;;;;5072968;28;20209;-64
2023/05/04 08:18:56;;;;;;;5.15;3.70;;;29.00;59.70;;;;;;5072903;28;20200;-63
2023/05/04 08:21:23;;;;;;;6.13;3.17;;;29.30;59.00;;;;;;5073019;28;20205;-62
2023/05/04 08:23:50;;;;;;;6.03;3.80;;;29.40;59.50;;;;;;5072952;28;20266;-61
2023/05/04 08:26:17;;;;;;;5.25;3.80;;;28.50;59.70;;;;;;5072612;28;20351;-61
2023/05/04 08:28:44;;;;;;;4.57;3.42;;;27.90;60.80;;;;;;5072347;28;20224;-61
2023/05/04 08:31:12;;;;;;;3.70;3.40;;;27.00;61.50;;;;;;5072828;28;20223;-62
2023/05/04 08:33:39;;;;;;;3.95;3.45;;;25.40;64.40;;;;;;5075405;28;20229;-62
2023/05/04 08:36:08;;;;;;;4.30;3.28;;;23.70;68.00;;;;;;5076607;28;20216;-60
2023/05/04 08:38:34;;;;;;;4.47;3.50;;;22.40;70.30;;;;;;5076592;28;20499;-64
2023/05/04 08:41:03;;;;;;;4.80;3.80;;;21.60;73.00;;;;;;5076919;28;20625;-63
2023/05/04 08:43:29;;;;;;;7.70;4.15;;;21.10;74.50;;;;;;5075956;28;20232;-60
2023/05/04 08:45:57;;;;;;;4.60;3.63;;;20.60;76.10;;;;;;5076501;28;20207;-62
2023/05/04 08:48:25;;;;;;;4.00;3.53;;;20.50;76.30;;;;;;5077160;28;20235;-60
2023/05/04 08:50:52;;;;;;;8.30;3.80;;;20.50;76.10;;;;;;5075914;28;20219;-60
2023/05/04 08:53:21;;;;;;;3.40;3.10;;;20.50;75.70;;;;;;5075958;28;20225;-60
2023/05/04 08:55:49;;;;;;;5.85;3.50;;;20.30;74.60;;;;;;5076989;28;20262;-62
2023/05/04 08:58:18;;;;;;;3.67;3.30;;;19.90;76.20;;;;;;5076506;28;20610;-61
2023/05/04 09:00:46;;;;;;;8.98;5.60;;;19.90;76.60;;;;;;5076641;28;20215;-60
2023/05/04 09:03:14;;;;;;;3.80;3.28;;;19.80;77.60;;;;;;5076057;28;20270;-59
2023/05/04 09:05:44;;;;;;;4.38;3.03;;;19.80;77.10;;;;;;5076937;28;20599;-61
2023/05/04 09:08:11;;;;;;;4.45;3.20;;;19.80;76.80;;;;;;5077030;28;20228;-62
2023/05/04 09:10:38;;;;;;;3.53;2.85;;;19.90;76.10;;;;;;5092664;28;20200;-60
2023/05/04 09:13:05;;;;;;;4.10;3.03;;;20.00;75.60;;;;;;5094639;28;20220;-60
2023/05/04 09:15:32;;;;;;;6.10;3.30;;;20.20;75.40;;;;;;5094709;28;20678;-59
2023/05/04 09:18:00;;;;;;;5.88;3.00;;;20.40;75.00;;;;;;5094726;28;20474;-59
2023/05/04 09:20:28;;;;;;;6.13;2.83;;;20.40;74.00;;;;;;5095179;28;20217;-60
2023/05/04 09:23:05;;;;;;;3.25;2.72;;;20.30;74.10;;;;;;5094536;28;20208;-60
2023/05/04 09:25:33;;;;;;;6.25;2.83;;;20.20;73.60;;;;;;5093948;28;20208;-60
2023/05/04 09:27:59;;;;;;;3.95;2.90;;;20.10;73.00;;;;;;5094512;28;20260;-60
2023/05/04 09:30:27;;;;;;;5.32;2.95;;;20.20;73.60;;;;;;5094355;28;20573;-60
2023/05/04 09:32:54;;;;;;;3.40;3.10;;;20.30;72.80;;;;;;5094268;28;20231;-60
2023/05/04 09:35:28;;;;;;;3.05;2.67;;;20.50;72.80;;;;;;5094257;28;20211;-60
2023/05/04 09:37:55;;;;;;;3.22;2.83;;;20.60;72.00;;;;;;5093974;28;20358;-60
2023/05/04 09:40:31;;;;;;;3.13;2.72;;;20.70;71.30;;;;;;5093926;28;20235;-60
2023/05/04 09:42:58;;;;;;;5.38;2.85;;;20.60;72.30;;;;;;5094154;28;20207;-58
2023/05/04 09:45:25;;;;;;;3.70;3.13;;;20.60;72.30;;;;;;5094291;28;20208;-59
2023/05/04 09:47:53;;;;;;;3.55;3.03;;;20.70;72.70;;;;;;5094064;28;20204;-60
2023/05/04 09:50:22;;;;;;;3.28;2.88;;;20.80;73.10;;;;;;5093278;28;20228;-58
2023/05/04 09:52:49;;;;;;;4.75;2.88;;;21.10;73.30;;;;;;5093772;28;20243;-59
2023/05/04 09:55:18;;;;;;;4.38;3.13;;;21.30;72.20;;;;;;5094018;28;20581;-63
2023/05/04 09:57:47;;;;;;;4.40;3.05;;;21.40;70.70;;;;;;5095597;28;20253;-61
2023/05/04 10:00:16;;;;;;;4.05;2.65;;;21.30;70.70;;;;;;5096163;28;20747;-62
2023/05/04 10:02:43;;;;;;;3.95;2.80;;;21.20;71.60;;;;;;5095796;28;20234;-61
2023/05/04 10:05:15;;;;;;;3.72;2.55;;;21.30;70.80;;;;;;5096082;28;20645;-61
2023/05/04 10:07:43;;;;;;;4.10;2.65;;;21.40;69.70;;;;;;5088704;28;20270;-61
2023/05/04 10:10:12;;;;;;;3.50;2.42;;;21.50;69.00;;;;;;5075911;28;20653;-61
2023/05/04 10:12:39;;;;;;;3.80;2.75;;;21.40;69.10;;;;;;5075418;28;20677;-60
2023/05/04 10:15:10;;;;;;;4.30;2.88;;;21.30;69.80;;;;;;5078664;28;20205;-62
2023/05/04 10:17:53;;;;;;;3.92;2.80;;;21.30;70.30;;;;;;5087642;28;20640;-62
2023/05/04 10:20:44;;;;;;;4.22;2.85;;;21.30;69.10;;;;;;5095773;28;20219;-61
2023/05/04 10:23:29;;;;;;;2.92;2.35;;;21.30;68.80;;;;;;5094978;28;20236;-61
2023/05/04 10:26:25;;;;;;;4.15;2.78;;;21.20;68.90;;;;;;5094369;28;20811;-61
2023/05/04 10:29:05;;;;;;;3.05;2.72;;;21.40;69.20;;;;;;5095051;28;20248;-61
2023/05/04 10:31:41;;;;;;;3.95;2.75;;;21.60;69.80;;;;;;5095566;28;20663;-61
2023/05/04 10:34:08;;;;;;;4.18;3.05;;;21.90;69.30;;;;;;5094530;28;20718;-61
2023/05/04 10:36:36;;;;;;;4.03;2.80;;;21.90;65.60;;;;;;5093947;28;20203;-61
2023/05/04 10:39:04;;;;;;;3.83;2.88;;;22.00;67.70;;;;;;5094773;28;20214;-62
2023/05/04 10:41:31;;;;;;;4.38;2.90;;;21.90;68.60;;;;;;5094721;28;20437;-62
2023/05/04 10:44:05;;;;;;;5.10;3.00;;;21.90;69.10;;;;;;5096094;28;20235;-62
2023/05/04 10:46:31;;;;;;;6.75;2.60;;;22.10;68.60;;;;;;5094766;28;20291;-61
2023/05/04 10:49:00;;;;;;;2.92;2.40;;;22.20;69.20;;;;;;5095189;28;20223;-62
2023/05/04 10:51:26;;;;;;;3.72;2.60;;;22.60;68.50;;;;;;5096272;28;20651;-62
2023/05/04 10:53:53;;;;;;;5.50;2.70;;;22.90;68.20;;;;;;5095857;28;20224;-61
2023/05/04 10:56:22;;;;;;;4.00;2.97;;;23.00;68.10;;;;;;5094458;28;20212;-62
2023/05/04 10:58:49;;;;;;;4.13;3.15;;;23.20;68.20;;;;;;5095254;28;20267;-61
2023/05/04 11:01:17;;;;;;;3.70;2.90;;;23.30;67.40;;;;;;5095332;28;20588;-63
2023/05/04 11:03:44;;;;;;;3.30;3.00;;;23.20;68.60;;;;;;5094849;28;20584;-64
2023/05/04 11:06:20;;;;;;;4.28;3.00;;;23.10;67.60;;;;;;5095032;28;20211;-65
2023/05/04 11:08:51;;;;;;;5.82;3.15;;;23.20;67.30;;;;;;5094997;28;20224;-61
2023/05/04 11:11:17;;;;;;;4.70;3.00;;;23.40;66.40;;;;;;5095723;28;20639;-63
2023/05/04 11:13:46;;;;;;;2.85;2.58;;;23.40;64.80;;;;;;5094817;28;20711;-65
2023/05/04 11:16:14;;;;;;;3.30;2.70;;;23.50;65.80;;;;;;5094423;28;20219;-66
2023/05/04 11:18:44;;;;;;;3.85;3.17;;;23.70;65.20;;;;;;5096460;28;20559;-65
2023/05/04 11:21:12;;;;;;;4.07;2.85;;;23.80;65.70;;;;;;5090872;28;20212;-67
2023/05/04 11:23:40;;;;;;;4.93;3.00;;;24.00;64.70;;;;;;5091950;28;20235;-68
2023/05/04 11:26:08;;;;;;;4.03;2.83;;;24.00;65.00;;;;;;5095121;28;20682;-63
2023/05/04 11:28:36;;;;;;;3.30;2.75;;;24.10;65.20;;;;;;5091847;28;20224;-60
2023/05/04 11:31:12;;;;;;;3.67;2.78;;;24.20;64.70;;;;;;5092694;28;20215;-59
2023/05/04 11:33:43;;;;;;;4.13;2.47;;;24.40;64.80;;;;;;5092391;28;20297;-61
2023/05/04 11:36:11;;;;;;;3.58;3.00;;;24.50;64.80;;;;;;5091829;28;20200;-61
2023/05/04 11:38:42;;;;;;;4.60;2.83;;;24.30;63.10;;;;;;5092193;28;20655;-63
2023/05/04 11:41:09;;;;;;;3.95;2.55;;;24.20;62.40;;;;;;5091634;28;20295;-59
2023/05/04 11:43:37;;;;;;;5.20;3.10;;;24.20;62.10;;;;;;5092085;28;20271;-60
2023/05/04 11:46:06;;;;;;;3.65;3.15;;;24.30;62.60;;;;;;5091683;28;20211;-61
2023/05/04 11:48:34;;;;;;;4.07;3.20;;;24.30;62.40;;;;;;5091867;28;20255;-60
2023/05/04 11:51:02;;;;;;;4.75;3.35;;;24.40;64.10;;;;;;5091717;28;20204;-59
2023/05/04 11:53:37;;;;;;;8.32;2.90;;;24.40;64.90;;;;;;5091183;28;20317;-60
2023/05/04 11:56:07;;;;;;;5.57;3.20;;;24.30;65.80;;;;;;5091406;28;20233;-60
2023/05/04 11:58:34;;;;;;;3.30;2.70;;;24.30;64.50;;;;;;5091712;28;20204;-60
2023/05/04 12:01:02;;;;;;;5.00;2.80;;;24.30;65.10;;;;;;5091564;28;20691;-61
2023/05/04 12:03:31;;;;;;;3.88;2.67;;;24.50;65.00;;;;;;5091574;28;20234;-60
2023/05/04 12:05:59;;;;;;;3.83;2.97;;;24.80;63.20;;;;;;5091569;28;20261;-59
2023/05/04 12:08:28;;;;;;;3.35;2.70;;;25.00;62.60;;;;;;5091457;28;20208;-60
2023/05/04 12:11:13;;;;;;;3.45;3.00;;;25.00;61.00;;;;;;5091530;28;20204;-60
2023/05/04 12:13:41;;;;;;;3.70;2.80;;;24.80;61.50;;;;;;5091452;28;20227;-60
2023/05/04 12:16:09;;;;;;;3.88;3.17;;;24.90;62.50;;;;;;5091018;28;20242;-59
2023/05/04 12:18:36;;;;;;;4.65;2.83;;;25.20;63.10;;;;;;5091191;28;20257;-59
2023/05/04 12:21:11;;;;;;;4.70;2.90;;;25.30;63.10;;;;;;5091511;28;20208;-60
2023/05/04 12:23:38;;;;;;;5.38;3.10;;;25.20;63.10;;;;;;5091136;28;20220;-60
2023/05/04 12:26:05;;;;;;;5.88;3.60;;;25.10;62.60;;;;;;5090923;28;20215;-60
2023/05/04 12:28:34;;;;;;;3.13;2.80;;;25.10;62.70;;;;;;5091199;28;20208;-60
2023/05/04 12:31:01;;;;;;;3.63;3.30;;;25.00;63.30;;;;;;5091808;28;20204;-59
2023/05/04 12:33:27;;;;;;;4.03;3.22;;;25.00;62.00;;;;;;5091155;28;20240;-60
2023/05/04 12:35:54;;;;;;;3.70;3.20;;;24.60;62.00;;;;;;5091355;28;20219;-59
2023/05/04 12:38:21;;;;;;;4.00;2.55;;;24.60;62.30;;;;;;5091822;28;20532;-62
2023/05/04 12:40:47;;;;;;;3.90;3.20;;;24.80;62.80;;;;;;5091366;28;20668;-61
2023/05/04 12:43:14;;;;;;;2.97;2.58;;;25.10;62.40;;;;;;5091875;28;20239;-66
2023/05/04 12:45:42;;;;;;;4.07;2.75;;;25.00;62.70;;;;;;5092395;28;20214;-64
2023/05/04 12:48:09;;;;;;;3.45;3.15;;;24.90;63.90;;;;;;5094638;28;20204;-65
2023/05/04 12:50:36;;;;;;;3.97;3.15;;;24.80;62.40;;;;;;5093997;28;20220;-66
2023/05/04 12:53:03;;;;;;;3.97;3.58;;;24.70;63.30;;;;;;5092747;28;20235;-64